KMLB

Melbourne International Airport

Melbourne, Florida, USA
KMLB 151128Z 1512/1612 VRB04KT P6SM SCT220 FM151400 13006KT P6SM SCT030 FM151800 11009KT P6SM VCTS SCT040CB SCT080 FM160000 14004KT P6SM FEW025
Issued Valid From Valid To
Aug-15 @ 11:28 UTC
(an hour ago)
Aug-15 @ 12:00 UTC
(41 minutes ago)
Aug-16 @ 12:00 UTC
(in 23 hours)
Aug-15 @ 12:00 to Aug-15 @ 14:00
KMLB 151128Z 1512/1612 VRB04KT P6SM SCT220
Wind Visibility Clouds
Variable at 4 knots Greater than 6 miles
  • Scattered at 22,000' AGL
From Aug-15 @ 14:00 to Aug-15 @ 18:00
FM151400 13006KT P6SM SCT030
Wind Visibility Clouds
130° at 6 knots Greater than 6 miles
  • Scattered at 3,000' AGL
From Aug-15 @ 18:00 to Aug-16 @ 00:00
FM151800 11009KT P6SM VCTS SCT040CB SCT080
Wind Visibility Clouds Conditions
110° at 9 knots Greater than 6 miles
  • Scattered at 4,000' AGL
  • Scattered at 8,000' AGL
  • Area Thunderstorm
From Aug-16 @ 00:00 to Aug-16 @ 12:00
FM160000 14004KT P6SM FEW025
Wind Visibility Clouds
140° at 4 knots Greater than 6 miles
  • Few at 2,500' AGL
KMLB 151128Z 1512/1612 VRB04KT P6SM SCT220 FM151400 13006KT P6SM SCT030 FM151800 11009KT P6SM VCTS SCT040CB SCT080 FM160000 14004KT P6SM FEW025
Issued Aug-15 @ 11:28 UTC
(an hour ago)
Valid From Aug-15 @ 12:00 UTC
(41 minutes ago)
Valid To Aug-16 @ 12:00 UTC
(in 23 hours)
Aug-15 @ 12:00 - Aug-15 @ 14:00
Wind Visibility
Variable at 4 knots Greater than 6 miles
Clouds
  • Scattered at 22,000' AGL
From Aug-15 @ 14:00 - Aug-15 @ 18:00
Wind Visibility
130° at 6 knots Greater than 6 miles
Clouds
  • Scattered at 3,000' AGL
From Aug-15 @ 18:00 - Aug-16 @ 00:00
Wind Visibility
110° at 9 knots Greater than 6 miles
Clouds
  • Scattered at 4,000' AGL
  • Scattered at 8,000' AGL
Conditions
  • Area Thunderstorm
From Aug-16 @ 00:00 - Aug-16 @ 12:00
Wind Visibility
140° at 4 knots Greater than 6 miles
Clouds
  • Few at 2,500' AGL